Time;durP1;ratioP1;P1;durP2;ratioP2;P2;SDS_P1;SDS_P2;PMS_P1;PMS_P2;Temp;Humidity;BMP_temperature;BMP_pressure;BME280_temperature;BME280_humidity;BME280_pressure;Samples;Min_cycle;Max_cycle;Signal;HPM_P1;HPM_P2
2024/01/15 00:02:23;;;;;;;0.00;0.00;;;;;;;1.66;80.97;98949.47;15670558;28;20040;-53
2024/01/15 00:09:58;;;;;;;0.17;0.17;;;;;;;1.43;82.00;98944.47;15639774;28;20502;-51
2024/01/15 00:17:33;;;;;;;0.00;0.00;;;;;;;1.48;82.49;98931.47;15657930;28;20458;-50
2024/01/15 00:25:08;;;;;;;;;;;;;;;1.30;82.52;98917.97;15656797;28;20037;-50
2024/01/15 00:32:42;;;;;;;0.03;0.03;;;;;;;1.49;81.11;98897.91;15674343;28;19960;-54
2024/01/15 00:40:16;;;;;;;;;;;;;;;1.42;80.56;98892.63;15673536;28;20041;-50
2024/01/15 00:47:50;;;;;;;0.00;0.00;;;;;;;1.38;80.47;98894.00;15673393;28;19943;-52
2024/01/15 00:55:24;;;;;;;;;;;;;;;1.52;79.95;98866.63;15670208;28;20048;-51
2024/01/15 01:02:59;;;;;;;0.05;0.05;;;;;;;1.31;79.55;98868.59;15670682;28;19921;-56
2024/01/15 01:10:34;;;;;;;;;;;;;;;1.34;79.17;98853.13;15652425;28;20259;-53
2024/01/15 01:18:07;;;;;;;0.00;0.00;;;;;;;1.51;79.33;98850.97;15667941;28;19920;-50
2024/01/15 01:25:42;;;;;;;0.45;0.30;;;;;;;1.09;82.06;98866.03;15671530;28;20092;-52
2024/01/15 01:33:15;;;;;;;1.17;0.95;;;;;;;0.99;83.60;98858.47;15670538;28;20037;-48
2024/01/15 01:40:50;;;;;;;;;;;;;;;0.95;84.35;98861.69;15671150;28;20112;-51
2024/01/15 01:48:24;;;;;;;0.43;0.43;;;;;;;0.75;84.70;98857.09;15662037;28;20520;-48
2024/01/15 01:56:00;;;;;;;0.10;0.10;;;;;;;0.98;83.78;98851.56;15653113;28;20072;-50
2024/01/15 02:03:37;;;;;;;0.20;0.20;;;;;;;1.07;82.89;98854.00;15673237;28;20363;-53
2024/01/15 02:11:12;;;;;;;0.00;0.00;;;;;;;1.10;82.49;98858.91;15675365;28;20417;-51
2024/01/15 02:18:47;;;;;;;0.10;0.10;;;;;;;1.15;81.23;98848.56;15683954;28;20091;-49
2024/01/15 02:26:22;;;;;;;0.10;0.10;;;;;;;1.06;81.29;98839.19;15681708;28;20044;-50
2024/01/15 02:33:56;;;;;;;0.00;0.00;;;;;;;1.09;80.61;98849.38;15676778;28;20445;-51
2024/01/15 02:41:32;;;;;;;0.08;0.08;;;;;;;0.95;81.01;98836.09;15678799;28;20072;-49
2024/01/15 02:49:06;;;;;;;0.05;0.05;;;;;;;1.01;80.95;98821.28;15672845;28;20124;-50
2024/01/15 02:56:40;;;;;;;0.10;0.10;;;;;;;0.82;80.85;98828.06;15679295;28;20045;-49
2024/01/15 03:04:14;;;;;;;0.00;0.00;;;;;;;0.88;79.77;98821.19;15671950;28;20048;-50
2024/01/15 03:11:50;;;;;;;0.00;0.00;;;;;;;0.79;79.53;98812.59;15660716;28;20052;-50
2024/01/15 03:19:25;;;;;;;0.00;0.00;;;;;;;0.87;79.41;98798.44;15660191;28;20077;-51
2024/01/15 03:27:00;;;;;;;0.03;0.03;;;;;;;0.90;78.63;98801.50;15674906;28;20048;-51
2024/01/15 03:34:34;;;;;;;3.03;0.90;;;;;;;1.16;77.49;98806.09;15677203;28;20075;-51
2024/01/15 03:42:10;;;;;;;0.00;0.00;;;;;;;0.96;78.18;98795.44;15659526;28;20041;-52
2024/01/15 03:49:43;;;;;;;0.00;0.00;;;;;;;1.10;77.53;98790.22;15647535;28;20049;-49
2024/01/15 03:57:22;;;;;;;0.22;0.22;;;;;;;0.98;78.13;98788.16;15674928;28;20044;-49
2024/01/15 04:04:55;;;;;;;5.95;0.93;;;;;;;1.06;77.85;98773.13;15659734;28;20037;-52
2024/01/15 04:12:30;;;;;;;0.00;0.00;;;;;;;1.07;77.45;98775.56;15670121;28;20091;-53
2024/01/15 04:20:04;;;;;;;0.00;0.00;;;;;;;1.33;76.45;98753.72;15652116;28;20044;-52
2024/01/15 04:27:40;;;;;;;0.17;0.10;;;;;;;1.30;75.73;98762.03;15672113;28;20140;-52
2024/01/15 04:35:16;;;;;;;0.00;0.00;;;;;;;1.20;76.33;98764.25;15671784;28;20040;-55
2024/01/15 04:42:53;;;;;;;0.03;0.03;;;;;;;1.11;76.32;98763.59;15654203;28;20041;-55
2024/01/15 04:50:27;;;;;;;1.08;0.30;;;;;;;1.21;75.83;98758.78;15645592;28;20056;-52
2024/01/15 04:58:04;;;;;;;0.00;0.00;;;;;;;1.36;75.20;98739.28;15669642;28;20048;-50
2024/01/15 05:05:38;;;;;;;0.10;0.10;;;;;;;1.22;75.13;98747.19;15656789;28;20053;-51
2024/01/15 05:13:13;;;;;;;;;;;;;;;1.15;77.68;98745.53;15671224;28;20099;-53
2024/01/15 05:20:53;;;;;;;0.00;0.00;;;;;;;1.31;76.80;98733.78;15639693;28;19971;-53
2024/01/15 05:28:31;;;;;;;0.30;0.30;;;;;;;1.34;76.49;98734.19;15670837;28;20068;-51
2024/01/15 05:36:05;;;;;;;0.00;0.00;;;;;;;1.23;76.05;98724.22;15668428;28;20044;-53
2024/01/15 05:43:43;;;;;;;1.48;1.38;;;;;;;1.60;74.43;98727.34;15673033;28;20391;-50
2024/01/15 05:51:21;;;;;;;0.05;0.05;;;;;;;1.20;76.60;98720.13;15665335;28;20053;-54
2024/01/15 05:58:55;;;;;;;0.00;0.00;;;;;;;0.97;78.86;98720.47;15683645;28;20448;-53
2024/01/15 06:06:29;;;;;;;0.00;0.00;;;;;;;1.22;77.59;98717.31;15666414;28;20073;-54
2024/01/15 06:14:07;;;;;;;0.00;0.00;;;;;;;1.22;77.14;98712.84;15685418;28;20132;-54
2024/01/15 06:21:40;;;;;;;0.00;0.00;;;;;;;1.20;77.45;98722.78;15667133;28;20049;-55
2024/01/15 06:29:19;;;;;;;0.00;0.00;;;;;;;1.30;76.58;98711.81;15718776;22;20059;-49
2024/01/15 06:36:52;;;;;;;0.00;0.00;;;;;;;1.17;77.70;98730.31;15780270;28;20059;-53
2024/01/15 06:44:27;;;;;;;0.00;0.00;;;;;;;1.20;78.09;98714.03;15739985;28;20047;-51
2024/01/15 06:52:02;;;;;;;0.20;0.20;;;;;;;1.35;76.82;98719.94;15736118;28;20615;-47
2024/01/15 06:59:39;;;;;;;0.00;0.00;;;;;;;1.34;75.66;98720.16;15737112;28;20044;-51
2024/01/15 07:07:14;;;;;;;0.00;0.00;;;;;;;1.45;74.72;98730.16;15737967;28;20135;-49
2024/01/15 07:14:55;;;;;;;0.00;0.00;;;;;;;1.60;73.98;98735.25;15723925;28;20070;-52
2024/01/15 07:22:32;;;;;;;0.00;0.00;;;;;;;1.73;74.21;98740.56;15741918;28;20127;-50
2024/01/15 07:30:08;;;;;;;;;;;;;;;1.60;74.29;98761.72;15741121;28;20048;-50
2024/01/15 07:37:42;;;;;;;0.00;0.00;;;;;;;1.79;74.09;98797.94;15736697;28;19920;-51
2024/01/15 07:45:21;;;;;;;0.00;0.00;;;;;;;1.76;73.79;98790.41;15739857;28;20109;-50
2024/01/15 07:52:54;;;;;;;0.10;0.10;;;;;;;1.61;74.64;98787.94;15741095;28;20046;-50
2024/01/15 08:00:29;;;;;;;0.00;0.00;;;;;;;1.80;74.27;98791.63;15739558;28;20047;-49
2024/01/15 08:08:17;;;;;;;0.00;0.00;;;;;;;1.77;74.09;98806.09;15737336;28;20459;-48
2024/01/15 08:16:00;;;;;;;0.00;0.00;;;;;;;1.77;75.28;98798.16;15739079;28;20075;-47
2024/01/15 08:23:35;;;;;;;0.00;0.00;;;;;;;1.66;76.21;98813.78;15738669;28;20063;-49
2024/01/15 08:31:11;;;;;;;0.00;0.00;;;;;;;1.65;74.97;98791.00;15721111;28;20059;-50
2024/01/15 08:38:46;;;;;;;0.00;0.00;;;;;;;2.01;73.67;98785.34;15732894;28;20036;-47
2024/01/15 08:46:20;;;;;;;0.00;0.00;;;;;;;1.83;74.11;98793.88;15717481;28;20052;-52
2024/01/15 08:53:58;;;;;;;0.00;0.00;;;;;;;2.02;73.80;98814.25;15728763;28;20093;-50
2024/01/15 09:01:34;;;;;;;0.00;0.00;;;;;;;1.77;75.19;98815.81;15736063;28;20048;-50
2024/01/15 09:09:08;;;;;;;0.10;0.10;;;;;;;1.79;75.07;98822.56;15736962;28;20044;-50
2024/01/15 09:16:42;;;;;;;0.00;0.00;;;;;;;1.74;75.61;98830.28;15732897;28;20049;-50
2024/01/15 09:24:27;;;;;;;0.65;0.55;;;;;;;1.72;75.86;98829.66;15748309;28;20036;-50
2024/01/15 09:32:03;;;;;;;0.00;0.00;;;;;;;1.68;75.52;98831.09;15755306;28;20101;-44
2024/01/15 09:39:38;;;;;;;0.00;0.00;;;;;;;1.77;74.91;98827.25;15744514;28;20048;-48
2024/01/15 09:47:13;;;;;;;0.00;0.00;;;;;;;1.79;74.74;98845.56;15755430;28;20056;-47
2024/01/15 09:54:48;;;;;;;0.10;0.10;;;;;;;1.84;75.35;98845.75;15737968;28;20451;-47
2024/01/15 10:02:23;;;;;;;3.63;1.83;;;;;;;1.76;76.40;98830.06;15736802;28;20044;-50
2024/01/15 10:10:00;;;;;;;0.25;0.25;;;;;;;1.81;75.83;98829.47;15755759;28;20037;-48
2024/01/15 10:17:38;;;;;;;0.00;0.00;;;;;;;2.09;74.38;98808.13;15755393;28;20052;-46
2024/01/15 10:25:12;;;;;;;0.00;0.00;;;;;;;2.11;74.29;98822.81;15737803;28;20463;-47
2024/01/15 10:32:58;;;;;;;0.00;0.00;;;;;;;2.23;74.35;98809.78;15752041;28;20124;-50
2024/01/15 10:40:35;;;;;;;0.00;0.00;;;;;;;2.29;74.42;98812.44;15741323;28;20119;-47
2024/01/15 10:48:12;;;;;;;0.00;0.00;;;;;;;2.38;73.56;98804.25;15710797;28;20045;-53
2024/01/15 10:55:48;;;;;;;0.05;0.05;;;;;;;2.16;74.39;98812.44;15744265;28;20076;-46
2024/01/15 11:03:24;;;;;;;0.00;0.00;;;;;;;2.20;74.44;98802.25;15731301;28;20098;-49
2024/01/15 11:10:58;;;;;;;0.00;0.00;;;;;;;2.11;76.89;98816.72;15724195;28;20119;-46
2024/01/15 11:18:36;;;;;;;0.00;0.00;;;;;;;2.18;78.40;98823.63;15741399;28;20079;-47
2024/01/15 11:26:28;;;;;;;0.00;0.00;;;;;;;2.29;78.97;98825.66;15740891;28;20052;-46
2024/01/15 11:34:03;;;;;;;0.00;0.00;;;;;;;2.03;79.09;98823.81;15737396;28;20662;-45
2024/01/15 11:41:36;;;;;;;0.00;0.00;;;;;;;1.91;79.81;98836.03;15721456;28;20382;-50
2024/01/15 11:49:27;;;;;;;0.38;0.38;;;;;;;1.88;79.58;98841.72;15742770;28;20106;-46
2024/01/15 11:57:08;;;;;;;0.00;0.00;;;;;;;2.21;78.01;98806.53;15722707;28;20492;-51
2024/01/15 12:04:43;;;;;;;0.00;0.00;;;;;;;1.81;79.13;98829.47;15720281;28;20040;-46
2024/01/15 12:12:25;;;;;;;0.00;0.00;;;;;;;1.72;78.57;98834.94;15740553;28;20041;-51
2024/01/15 12:20:00;;;;;;;0.00;0.00;;;;;;;1.71;78.52;98845.72;15722291;28;20497;-49
2024/01/15 12:27:36;;;;;;;0.00;0.00;;;;;;;1.76;78.89;98845.94;15722143;28;20500;-49
2024/01/15 12:35:12;;;;;;;0.10;0.10;;;;;;;1.80;78.98;98844.53;15721570;28;20532;-47
2024/01/15 12:42:46;;;;;;;0.00;0.00;;;;;;;1.46;81.99;98850.75;15738878;28;20128;-51
2024/01/15 12:50:25;;;;;;;0.00;0.00;;;;;;;1.40;83.44;98857.66;15721252;28;20508;-50
2024/01/15 12:58:00;;;;;;;0.00;0.00;;;;;;;1.50;81.44;98859.91;15738453;28;20066;-48
2024/01/15 13:05:36;;;;;;;;;;;;;;;1.72;81.41;98865.88;15735162;28;20043;-50
2024/01/15 13:13:12;;;;;;;0.00;0.00;;;;;;;1.47;81.11;98873.53;15735009;28;20377;-49
2024/01/15 13:20:47;;;;;;;0.00;0.00;;;;;;;1.69;80.89;98872.38;15736868;28;20052;-49
2024/01/15 13:28:21;;;;;;;0.30;0.30;;;;;;;1.53;80.71;98870.88;15736765;28;20103;-50
2024/01/15 13:35:56;;;;;;;0.10;0.10;;;;;;;1.35;82.73;98883.81;15719662;28;20047;-49
2024/01/15 13:43:32;;;;;;;0.00;0.00;;;;;;;1.25;82.61;98892.13;15719467;28;20040;-48
2024/01/15 13:51:08;;;;;;;0.05;0.05;;;;;;;1.66;82.26;98909.78;15736934;28;20070;-48
2024/01/15 13:58:42;;;;;;;0.10;0.10;;;;;;;1.53;82.40;98913.19;15736625;28;20075;-49
2024/01/15 14:06:17;;;;;;;0.00;0.00;;;;;;;1.34;81.85;98929.78;15736636;28;20580;-51
2024/01/15 14:13:50;;;;;;;0.00;0.00;;;;;;;1.28;80.93;98931.38;15722392;28;20068;-51
2024/01/15 14:21:27;;;;;;;0.00;0.00;;;;;;;1.40;80.33;98936.94;15744650;28;20123;-50
2024/01/15 14:29:00;;;;;;;0.00;0.00;;;;;;;1.36;81.03;98951.56;15707511;28;20055;-50
2024/01/15 14:36:36;;;;;;;0.00;0.00;;;;;;;1.36;81.74;98956.84;15741332;28;20136;-50
2024/01/15 14:44:09;;;;;;;0.22;0.22;;;;;;;1.31;81.69;98961.91;15745772;28;20041;-46
2024/01/15 14:51:44;;;;;;;1.13;0.90;;;;;;;1.26;82.82;98973.06;15701661;28;20041;-47
2024/01/15 14:59:18;;;;;;;0.00;0.00;;;;;;;1.44;82.37;98987.56;15720662;28;20045;-50
2024/01/15 15:06:52;;;;;;;0.00;0.00;;;;;;;1.39;82.70;98990.81;15727923;28;20099;-50
2024/01/15 15:14:26;;;;;;;0.00;0.00;;;;;;;1.49;81.68;98999.22;15716576;28;20054;-50
2024/01/15 15:22:01;;;;;;;0.00;0.00;;;;;;;1.38;82.16;99012.16;15722619;28;20473;-49
2024/01/15 15:29:36;;;;;;;0.17;0.17;;;;;;;0.95;83.18;99018.34;15733521;28;20040;-50
2024/01/15 15:37:16;;;;;;;3.00;2.40;;;;;;;1.24;83.83;99019.16;15715202;28;20041;-50
2024/01/15 15:44:51;;;;;;;0.10;0.10;;;;;;;0.90;85.14;99035.78;15739566;28;20127;-47
2024/01/15 15:52:26;;;;;;;0.10;0.10;;;;;;;0.95;85.19;99044.75;15733178;28;20044;-52
2024/01/15 15:59:59;;;;;;;0.00;0.00;;;;;;;1.12;83.49;99050.59;15739016;28;20044;-50
2024/01/15 16:07:36;;;;;;;0.00;0.00;;;;;;;0.93;84.84;99056.50;15711868;28;20456;-51
2024/01/15 16:15:18;;;;;;;1.20;1.13;;;;;;;1.30;82.74;99065.16;15728807;28;20054;-53
2024/01/15 16:22:53;;;;;;;0.43;0.43;;;;;;;0.89;83.33;99079.88;15737434;28;20051;-52
2024/01/15 16:30:28;;;;;;;0.45;0.45;;;;;;;1.19;81.98;99088.47;15737886;28;20507;-50
2024/01/15 16:38:03;;;;;;;0.00;0.00;;;;;;;1.12;81.45;99084.94;15699856;28;20053;-53
2024/01/15 16:45:37;;;;;;;0.00;0.00;;;;;;;1.26;80.32;99102.56;15736099;28;20045;-53
2024/01/15 16:53:12;;;;;;;0.00;0.00;;;;;;;1.08;80.47;99117.22;15731428;28;20123;-50
2024/01/15 17:00:47;;;;;;;0.00;0.00;;;;;;;1.11;81.50;99122.13;15732921;28;20075;-51
2024/01/15 17:08:21;;;;;;;0.00;0.00;;;;;;;1.49;79.84;99120.84;15732540;28;20103;-50
2024/01/15 17:15:55;;;;;;;0.00;0.00;;;;;;;1.43;80.47;99134.81;15736723;28;20410;-48
2024/01/15 17:23:31;;;;;;;0.00;0.00;;;;;;;0.94;83.03;99138.22;15735067;28;20045;-50
2024/01/15 17:31:04;;;;;;;0.35;0.32;;;;;;;1.06;83.80;99150.94;15737397;28;20045;-51
2024/01/15 17:38:40;;;;;;;0.10;0.10;;;;;;;1.14;83.19;99158.75;15737772;28;20489;-46
2024/01/15 17:46:15;;;;;;;0.00;0.00;;;;;;;1.17;82.74;99161.03;15745059;28;20045;-50
2024/01/15 17:53:49;;;;;;;;;;;;;;;1.15;83.53;99163.00;15749704;28;20131;-52
2024/01/15 18:01:23;;;;;;;0.00;0.00;;;;;;;1.08;84.17;99164.78;15743415;28;19924;-52
2024/01/15 18:08:57;;;;;;;;;;;;;;;1.11;83.44;99172.31;15737623;28;20135;-50
2024/01/15 18:16:31;;;;;;;0.40;0.32;;;;;;;1.00;84.00;99187.66;15740193;28;20223;-50
2024/01/15 18:24:06;;;;;;;0.10;0.10;;;;;;;0.92;85.14;99206.25;15706248;28;20051;-48
2024/01/15 18:31:41;;;;;;;0.00;0.00;;;;;;;1.11;83.87;99209.31;15786207;22;20537;-53
2024/01/15 18:39:16;;;;;;;;;;;;;;;0.92;84.81;99223.94;15800671;28;20085;-49
2024/01/15 18:46:49;;;;;;;0.00;0.00;;;;;;;0.95;84.72;99232.31;15776478;28;20299;-54
2024/01/15 18:54:24;;;;;;;0.00;0.00;;;;;;;0.70;83.70;99236.25;15741133;28;20087;-53
2024/01/15 19:01:59;;;;;;;0.00;0.00;;;;;;;1.01;82.46;99260.63;15798172;28;20477;-51
2024/01/15 19:09:33;;;;;;;0.10;0.10;;;;;;;0.96;81.55;99270.94;15789707;28;20048;-49
2024/01/15 19:17:07;;;;;;;0.00;0.00;;;;;;;0.75;82.08;99282.25;15764539;28;20075;-53
2024/01/15 19:24:43;;;;;;;0.00;0.00;;;;;;;0.93;81.52;99287.16;15777600;28;20564;-54
2024/01/15 19:32:16;;;;;;;0.00;0.00;;;;;;;1.55;79.08;99306.19;15795802;28;20127;-52
2024/01/15 19:39:51;;;;;;;0.15;0.15;;;;;;;0.98;80.47;99313.03;15758865;28;20055;-50
2024/01/15 19:47:25;;;;;;;0.45;0.45;;;;;;;1.18;80.38;99326.50;15763635;28;20087;-53
2024/01/15 19:54:59;;;;;;;0.00;0.00;;;;;;;1.09;79.95;99357.47;15789150;28;20131;-55
2024/01/15 20:02:33;;;;;;;0.00;0.00;;;;;;;0.55;79.19;99373.53;15777694;28;20050;-50
2024/01/15 20:10:09;;;;;;;0.00;0.00;;;;;;;0.73;78.73;99368.75;15795690;28;20153;-51
2024/01/15 20:17:43;;;;;;;0.10;0.10;;;;;;;0.33;79.45;99383.16;15773361;28;20044;-54
2024/01/15 20:25:17;;;;;;;;;;;;;;;0.21;82.37;99403.03;15795344;28;20075;-50
2024/01/15 20:32:51;;;;;;;0.90;0.80;;;;;;;0.63;81.14;99422.81;15789564;28;19974;-51
2024/01/15 20:40:27;;;;;;;0.00;0.00;;;;;;;0.51;81.06;99430.34;15777416;28;20040;-52
2024/01/15 20:48:00;;;;;;;0.30;0.30;;;;;;;0.34;81.10;99437.56;15787937;28;20052;-46
2024/01/15 20:55:36;;;;;;;0.00;0.00;;;;;;;0.42;80.26;99437.53;15793223;28;20450;-52
2024/01/15 21:03:10;;;;;;;0.77;0.77;;;;;;;0.09;79.03;99449.28;15771090;28;20036;-52
2024/01/15 21:10:46;;;;;;;0.00;0.00;;;;;;;0.25;79.93;99481.66;15774772;28;20059;-48
2024/01/15 21:18:20;;;;;;;0.00;0.00;;;;;;;0.59;78.19;99467.25;15787730;28;20147;-51
2024/01/15 21:25:55;;;;;;;0.00;0.00;;;;;;;0.52;77.79;99484.81;15776480;28;20114;-51
2024/01/15 21:33:31;;;;;;;0.00;0.00;;;;;;;0.34;78.70;99489.53;15793224;28;20068;-48
2024/01/15 21:41:07;;;;;;;0.00;0.00;;;;;;;0.13;78.56;99498.06;15792977;28;20492;-52
2024/01/15 21:48:41;;;;;;;0.00;0.00;;;;;;;0.89;75.91;99501.69;15775391;28;20524;-53
2024/01/15 21:56:16;;;;;;;;;;;;;;;0.64;75.96;99517.69;15792754;28;20105;-55
2024/01/15 22:03:49;;;;;;;0.00;0.00;;;;;;;0.61;75.74;99518.06;15786636;28;19920;-51
2024/01/15 22:11:25;;;;;;;0.10;0.10;;;;;;;0.95;74.49;99520.28;15788441;28;20040;-51
2024/01/15 22:18:58;;;;;;;0.00;0.00;;;;;;;1.19;73.42;99516.59;15779240;28;20043;-53
2024/01/15 22:26:35;;;;;;;0.13;0.13;;;;;;;1.39;72.03;99514.22;15784964;28;20036;-49
2024/01/15 22:34:08;;;;;;;0.10;0.10;;;;;;;0.96;73.82;99526.38;15800238;28;20051;-49
2024/01/15 22:41:43;;;;;;;;;;;;;;;0.53;76.37;99533.13;15794916;28;20060;-51
2024/01/15 22:49:16;;;;;;;0.00;0.00;;;;;;;1.16;73.97;99524.03;15796343;28;19935;-50
2024/01/15 22:56:51;;;;;;;;;;;;;;;0.91;75.06;99528.72;15775908;28;20071;-48
2024/01/15 23:04:26;;;;;;;0.00;0.00;;;;;;;1.38;73.48;99536.38;15796049;28;20023;-49
2024/01/15 23:12:01;;;;;;;;;;;;;;;1.28;73.16;99549.88;15794081;28;20036;-51
2024/01/15 23:19:37;;;;;;;0.00;0.00;;;;;;;1.04;73.69;99539.53;15791840;28;19923;-50
2024/01/15 23:27:12;;;;;;;0.00;0.00;;;;;;;0.98;72.64;99556.09;15779350;28;20559;-50
2024/01/15 23:34:46;;;;;;;0.00;0.00;;;;;;;1.00;72.27;99565.47;15781971;28;20396;-51
2024/01/15 23:42:21;;;;;;;;;;;;;;;0.97;73.27;99568.47;15772866;28;20477;-50
2024/01/15 23:49:55;;;;;;;0.00;0.00;;;;;;;0.97;73.72;99573.75;15786443;28;19985;-52
2024/01/15 23:57:30;;;;;;;;;;;;;;;0.63;75.47;99584.72;15791820;28;20044;-50
